createdAt,value
2018-07-04T00:00:01.614Z,584
2018-07-04T00:01:09.502Z,585
2018-07-04T00:02:17.120Z,585
2018-07-04T00:03:24.747Z,585
2018-07-04T00:04:32.657Z,585
2018-07-04T00:05:40.555Z,584
2018-07-04T00:06:48.179Z,584
2018-07-04T00:07:55.795Z,583
2018-07-04T00:09:03.681Z,581
2018-07-04T00:10:11.570Z,580
2018-07-04T00:11:18.906Z,581
2018-07-04T00:12:26.793Z,581
2018-07-04T00:13:34.420Z,581
2018-07-04T00:14:42.333Z,581
2018-07-04T00:15:50.168Z,583
2018-07-04T00:16:58.069Z,582
2018-07-04T00:18:05.961Z,582
2018-07-04T00:19:13.852Z,582
2018-07-04T00:20:21.751Z,583
2018-07-04T00:21:29.644Z,583
2018-07-04T00:22:37.257Z,583
2018-07-04T00:23:45.152Z,582
2018-07-04T00:24:52.779Z,583
2018-07-04T00:26:15.042Z,583
2018-07-04T00:27:22.939Z,583
2018-07-04T00:28:30.830Z,583
2018-07-04T00:29:38.726Z,582
2018-07-04T00:30:46.611Z,582
2018-07-04T00:31:54.505Z,582
2018-07-04T00:33:02.394Z,581
2018-07-04T00:34:10.287Z,579
2018-07-04T00:35:18.177Z,580
2018-07-04T00:36:26.071Z,579
2018-07-04T00:37:33.690Z,579
2018-07-04T00:38:41.570Z,578
2018-07-04T00:39:49.470Z,578
2018-07-04T00:40:57.372Z,579
2018-07-04T00:42:05.261Z,580
2018-07-04T00:43:12.873Z,581
2018-07-04T00:44:20.764Z,580
2018-07-04T00:45:28.650Z,581
2018-07-04T00:46:36.565Z,581
2018-07-04T00:47:44.183Z,581
2018-07-04T00:48:52.070Z,583
2018-07-04T00:49:59.685Z,582
2018-07-04T00:51:07.572Z,582
2018-07-04T00:52:15.472Z,583
2018-07-04T00:53:23.368Z,581
2018-07-04T00:54:31.274Z,582
2018-07-04T00:55:39.166Z,581
2018-07-04T00:56:47.073Z,581
2018-07-04T00:57:54.693Z,581
2018-07-04T00:59:02.577Z,581
2018-07-04T01:00:10.467Z,582
2018-07-04T01:01:18.367Z,582
2018-07-04T01:02:26.253Z,582
2018-07-04T01:03:33.862Z,583
2018-07-04T01:04:41.472Z,582
2018-07-04T01:05:49.381Z,582
2018-07-04T01:06:56.994Z,581
2018-07-04T01:08:04.876Z,582
2018-07-04T01:09:12.760Z,582
2018-07-04T01:10:20.647Z,582
2018-07-04T01:11:28.536Z,581
2018-07-04T01:12:36.427Z,581
2018-07-04T01:13:44.037Z,581
2018-07-04T01:14:51.927Z,580
2018-07-04T01:15:59.820Z,581
2018-07-04T01:17:07.440Z,580
2018-07-04T01:18:15.054Z,581
2018-07-04T01:19:22.667Z,581
2018-07-04T01:20:30.276Z,581
2018-07-04T01:21:37.883Z,581
2018-07-04T01:22:45.873Z,581
2018-07-04T01:23:53.764Z,581
2018-07-04T01:25:01.670Z,581
2018-07-04T01:26:09.571Z,581
2018-07-04T01:27:17.462Z,581
2018-07-04T01:28:25.354Z,582
2018-07-04T01:29:33.242Z,581
2018-07-04T01:30:41.133Z,581
2018-07-04T01:31:49.023Z,582
2018-07-04T01:32:56.645Z,581
2018-07-04T01:34:04.259Z,581
2018-07-04T01:35:12.144Z,582
2018-07-04T01:36:19.756Z,582
2018-07-04T01:37:27.683Z,582
2018-07-04T01:38:35.567Z,582
2018-07-04T01:39:43.480Z,581
2018-07-04T01:40:51.368Z,582
2018-07-04T01:41:59.278Z,581
2018-07-04T01:43:06.616Z,583
2018-07-04T01:44:14.520Z,582
2018-07-04T01:45:22.406Z,582
2018-07-04T01:46:30.295Z,582
2018-07-04T01:47:38.185Z,583
2018-07-04T01:48:46.074Z,582
2018-07-04T01:49:53.966Z,582
2018-07-04T01:51:01.872Z,583
2018-07-04T01:52:09.477Z,583
2018-07-04T01:53:17.380Z,583
2018-07-04T01:54:25.000Z,583
2018-07-04T01:55:32.620Z,583
2018-07-04T01:56:40.511Z,583
2018-07-04T01:57:48.557Z,583
2018-07-04T01:58:56.459Z,583
2018-07-04T02:00:04.075Z,583
2018-07-04T02:01:11.707Z,583
2018-07-04T02:02:19.596Z,583
2018-07-04T02:03:27.495Z,583
2018-07-04T02:04:35.113Z,582
2018-07-04T02:05:43.018Z,583
2018-07-04T02:06:50.919Z,582
2018-07-04T02:07:58.539Z,584
2018-07-04T02:09:06.446Z,584
2018-07-04T02:10:14.331Z,584
2018-07-04T02:11:22.219Z,584
2018-07-04T02:12:30.071Z,583
2018-07-04T02:13:37.979Z,583
2018-07-04T02:14:45.872Z,584
2018-07-04T02:15:53.786Z,584
2018-07-04T02:17:01.677Z,585
2018-07-04T02:18:09.564Z,584
2018-07-04T02:19:17.452Z,585
2018-07-04T02:20:25.338Z,584
2018-07-04T02:21:33.439Z,585
2018-07-04T02:22:41.328Z,583
2018-07-04T02:23:49.227Z,584
2018-07-04T02:24:57.129Z,584
2018-07-04T02:26:05.015Z,585
2018-07-04T02:27:13.157Z,585
2018-07-04T02:28:21.038Z,585
2018-07-04T02:29:29.159Z,585
2018-07-04T02:30:37.049Z,584
2018-07-04T02:31:44.955Z,585
2018-07-04T02:32:52.851Z,586
2018-07-04T02:34:00.739Z,584
2018-07-04T02:35:08.630Z,585
2018-07-04T02:36:16.524Z,585
2018-07-04T02:37:24.417Z,585
2018-07-04T02:38:32.306Z,586
2018-07-04T02:39:40.226Z,585
2018-07-04T02:40:48.125Z,585
2018-07-04T02:41:56.038Z,584
2018-07-04T02:43:03.933Z,584
2018-07-04T02:44:11.821Z,584
2018-07-04T02:45:19.733Z,584
2018-07-04T02:46:27.371Z,584
2018-07-04T02:47:35.260Z,584
2018-07-04T02:48:43.164Z,585
2018-07-04T02:49:51.036Z,585
2018-07-04T02:50:58.960Z,584
2018-07-04T02:52:06.844Z,584
2018-07-04T02:53:14.741Z,585
2018-07-04T02:54:22.627Z,586
2018-07-04T02:55:30.756Z,585
2018-07-04T02:56:38.652Z,585
2018-07-04T02:57:46.545Z,585
2018-07-04T02:58:54.430Z,585
2018-07-04T03:00:02.318Z,584
2018-07-04T03:01:10.204Z,584
2018-07-04T03:02:18.108Z,584
2018-07-04T03:03:25.998Z,585
2018-07-04T03:04:33.886Z,585
2018-07-04T03:05:41.501Z,585
2018-07-04T03:06:49.389Z,585
2018-07-04T03:07:56.999Z,585
2018-07-04T03:09:04.896Z,585
2018-07-04T03:10:12.784Z,585
2018-07-04T03:11:20.671Z,585
2018-07-04T03:12:28.582Z,584
2018-07-04T03:13:36.458Z,585
2018-07-04T03:14:44.346Z,585
2018-07-04T03:15:52.235Z,584
2018-07-04T03:16:59.878Z,584
2018-07-04T03:18:07.766Z,585
2018-07-04T03:19:15.651Z,584
2018-07-04T03:20:23.553Z,586
2018-07-04T03:21:31.442Z,584
2018-07-04T03:22:39.291Z,585
2018-07-04T03:23:47.181Z,584
2018-07-04T03:24:55.295Z,584
2018-07-04T03:26:02.936Z,585
2018-07-04T03:27:10.830Z,584
2018-07-04T03:28:18.475Z,585
2018-07-04T03:29:26.059Z,585
2018-07-04T03:30:33.971Z,585
2018-07-04T03:31:41.883Z,584
2018-07-04T03:32:49.767Z,583
2018-07-04T03:33:57.670Z,585
2018-07-04T03:35:05.301Z,585
2018-07-04T03:36:13.195Z,585
2018-07-04T03:37:21.098Z,584
2018-07-04T03:38:29.030Z,585
2018-07-04T03:39:36.928Z,584
2018-07-04T03:40:44.833Z,584
2018-07-04T03:41:52.770Z,584
2018-07-04T03:43:00.662Z,584
2018-07-04T03:44:08.560Z,584
2018-07-04T03:45:16.475Z,583
2018-07-04T03:46:24.366Z,583
2018-07-04T03:47:32.257Z,583
2018-07-04T03:48:40.152Z,582
2018-07-04T03:49:47.859Z,582
2018-07-04T03:50:55.983Z,582
2018-07-04T03:52:03.598Z,582
2018-07-04T03:53:11.447Z,582
2018-07-04T03:54:19.055Z,583
2018-07-04T03:55:26.945Z,582
2018-07-04T03:56:34.872Z,583
2018-07-04T03:57:42.782Z,583
2018-07-04T03:58:50.674Z,583
2018-07-04T22:00:07.522Z,564
2018-07-04T22:01:15.442Z,563
2018-07-04T22:02:23.364Z,564
2018-07-04T22:03:31.716Z,564
2018-07-04T22:04:39.806Z,563
2018-07-04T22:05:47.700Z,562
2018-07-04T22:06:55.596Z,563
2018-07-04T22:08:03.489Z,563
2018-07-04T22:09:11.114Z,563
2018-07-04T22:10:19.007Z,563
2018-07-04T22:11:26.917Z,565
2018-07-04T22:12:34.814Z,564
2018-07-04T22:13:42.722Z,565
2018-07-04T22:14:50.619Z,564
2018-07-04T22:15:58.754Z,564
2018-07-04T22:17:06.654Z,564
2018-07-04T22:18:14.785Z,564
2018-07-04T22:19:22.676Z,565
2018-07-04T22:20:30.565Z,564
2018-07-04T22:21:38.458Z,565
2018-07-04T22:22:46.084Z,564
2018-07-04T22:23:53.968Z,564
2018-07-04T22:25:01.875Z,565
2018-07-04T22:26:09.788Z,565
2018-07-04T22:27:17.681Z,563
2018-07-04T22:28:25.648Z,565
2018-07-04T22:29:33.541Z,564
2018-07-04T22:30:41.431Z,565
2018-07-04T22:31:49.558Z,565
2018-07-04T22:32:57.179Z,565
2018-07-04T22:34:05.288Z,565
2018-07-04T22:35:13.190Z,566
2018-07-04T22:36:21.311Z,567
2018-07-04T22:37:29.204Z,565
2018-07-04T22:38:37.111Z,564
2018-07-04T22:39:45.008Z,565
2018-07-04T22:40:52.905Z,564
2018-07-04T22:42:00.730Z,564
2018-07-04T22:43:08.647Z,564
2018-07-04T22:44:16.552Z,565
2018-07-04T22:45:24.829Z,565
2018-07-04T22:46:32.748Z,564
2018-07-04T22:47:40.347Z,565
2018-07-04T22:48:47.959Z,565
2018-07-04T22:49:55.865Z,564
2018-07-04T22:51:03.758Z,565
2018-07-04T22:52:11.686Z,565
2018-07-04T22:53:19.566Z,565
2018-07-04T22:54:27.459Z,564
2018-07-04T22:55:35.353Z,566
2018-07-04T22:56:43.246Z,566
2018-07-04T22:57:51.140Z,566
2018-07-04T22:58:59.076Z,566
2018-07-04T23:00:06.963Z,565
2018-07-04T23:01:14.595Z,565
2018-07-04T23:02:22.485Z,565
2018-07-04T23:03:30.378Z,565
2018-07-04T23:04:38.270Z,565
2018-07-04T23:05:46.179Z,566
2018-07-04T23:06:54.070Z,566
2018-07-04T23:08:01.966Z,566
2018-07-04T23:09:09.856Z,565
2018-07-04T23:10:17.747Z,565
2018-07-04T23:11:25.637Z,566
2018-07-04T23:12:33.262Z,567
2018-07-04T23:13:40.880Z,568
2018-07-04T23:14:48.775Z,567
2018-07-04T23:15:56.669Z,567
2018-07-04T23:17:04.440Z,566
2018-07-04T23:18:12.325Z,567
2018-07-04T23:19:19.939Z,568
2018-07-04T23:20:27.831Z,568
2018-07-04T23:21:35.728Z,568
2018-07-04T23:22:43.074Z,567
2018-07-04T23:23:50.662Z,568
2018-07-04T23:24:58.550Z,567
2018-07-04T23:26:06.443Z,567
2018-07-04T23:27:14.335Z,564
2018-07-04T23:28:22.232Z,565
2018-07-04T23:29:30.120Z,567
2018-07-04T23:30:38.027Z,566
2018-07-04T23:31:45.928Z,566
2018-07-04T23:32:53.814Z,566
2018-07-04T23:34:01.713Z,566
2018-07-04T23:35:09.601Z,566
2018-07-04T23:36:17.211Z,565
2018-07-04T23:37:25.098Z,566
2018-07-04T23:38:32.992Z,567
2018-07-04T23:39:40.875Z,567
2018-07-04T23:40:48.765Z,568
2018-07-04T23:41:56.660Z,567
2018-07-04T23:43:04.553Z,567
2018-07-04T23:44:12.448Z,567
2018-07-04T23:45:20.342Z,567
2018-07-04T23:46:28.254Z,568
2018-07-04T23:47:36.157Z,567
2018-07-04T23:48:44.060Z,566
2018-07-04T23:49:51.954Z,566
2018-07-04T23:50:59.869Z,565
2018-07-04T23:52:07.759Z,567
2018-07-04T23:53:15.661Z,566
2018-07-04T23:54:23.547Z,566
2018-07-04T23:55:31.462Z,567
2018-07-04T23:56:39.354Z,568
2018-07-04T23:57:47.259Z,567
2018-07-04T23:58:55.162Z,568
